createdAt,value
2019-04-28T00:01:03.475Z,8.60
2019-04-28T00:03:32.025Z,8.60
2019-04-28T00:06:01.146Z,8.40
2019-04-28T00:08:29.602Z,8.50
2019-04-28T00:10:58.012Z,8.50
2019-04-28T00:13:26.304Z,8.50
2019-04-28T00:15:55.957Z,8.40
2019-04-28T00:18:24.505Z,8.50
2019-04-28T00:21:11.007Z,8.50
2019-04-28T00:23:55.627Z,8.60
2019-04-28T00:26:47.163Z,8.60
2019-04-28T00:29:15.543Z,8.50
2019-04-28T00:31:45.074Z,8.60
2019-04-28T00:34:13.386Z,8.60
2019-04-28T00:36:43.232Z,8.60
2019-04-28T00:39:11.515Z,8.60
2019-04-28T00:41:41.868Z,8.60
2019-04-28T00:44:11.763Z,8.60
2019-04-28T00:46:41.379Z,8.60
2019-04-28T00:49:11.662Z,8.70
2019-04-28T00:51:42.069Z,8.70
2019-04-28T00:54:12.074Z,8.70
2019-04-28T00:56:41.775Z,8.70
2019-04-28T00:59:11.765Z,8.70
2019-04-28T01:01:51.223Z,8.80
2019-04-28T01:04:21.763Z,8.80
2019-04-28T01:06:51.812Z,8.70
2019-04-28T01:09:21.768Z,8.70
2019-04-28T01:11:51.104Z,8.70
2019-04-28T01:14:21.326Z,8.70
2019-04-28T01:17:04.887Z,8.70
2019-04-28T01:19:35.519Z,8.70
2019-04-28T01:22:14.654Z,8.70
2019-04-28T01:24:42.968Z,8.80
2019-04-28T01:27:36.278Z,8.80
2019-04-28T01:30:11.083Z,8.80
2019-04-28T01:32:44.298Z,8.80
2019-04-28T01:35:12.643Z,8.70
2019-04-28T01:37:43.259Z,8.70
2019-04-28T01:40:11.618Z,8.80
2019-04-28T01:42:41.252Z,8.80
2019-04-28T01:45:10.580Z,8.80
2019-04-28T01:47:40.447Z,8.80
2019-04-28T01:50:10.352Z,8.80
2019-04-28T01:52:39.977Z,8.70
2019-04-28T01:55:10.180Z,8.70
2019-04-28T01:57:39.986Z,8.60
2019-04-28T02:00:22.378Z,8.60
2019-04-28T02:02:41.191Z,8.60
2019-04-28T02:05:09.773Z,8.50
2019-04-28T02:07:38.115Z,8.50
2019-04-28T02:10:06.466Z,8.60
2019-04-28T02:12:34.728Z,8.60
2019-04-28T02:15:03.471Z,8.60
2019-04-28T02:17:31.707Z,8.60
2019-04-28T02:20:00.767Z,8.60
2019-04-28T02:22:34.126Z,8.60
2019-04-28T02:25:02.459Z,8.60
2019-04-28T02:27:30.745Z,8.50
2019-04-28T02:30:00.127Z,8.50
2019-04-28T02:32:30.895Z,8.50
2019-04-28T02:35:01.385Z,8.50
2019-04-28T02:37:30.692Z,8.50
2019-04-28T02:40:02.812Z,8.50
2019-04-28T02:42:30.921Z,8.50
2019-04-28T02:45:00.488Z,8.40
2019-04-28T02:47:33.753Z,8.50
2019-04-28T02:50:18.124Z,8.50
2019-04-28T02:53:01.675Z,8.50
2019-04-28T02:55:31.665Z,8.50
2019-04-28T02:58:01.440Z,8.40
2019-04-28T03:00:31.749Z,8.40
2019-04-28T03:03:01.422Z,8.40
2019-04-28T03:05:30.293Z,8.40
2019-04-28T03:08:01.351Z,8.50
2019-04-28T03:10:31.039Z,8.40
2019-04-28T03:13:01.896Z,8.40
2019-04-28T03:15:30.680Z,8.40
2019-04-28T03:18:01.683Z,8.40
2019-04-28T03:20:30.759Z,8.40
2019-04-28T03:23:00.961Z,8.40
2019-04-28T03:25:57.414Z,8.40
2019-04-28T03:28:56.990Z,8.40
2019-04-28T03:32:16.434Z,8.40
2019-04-28T03:34:25.795Z,8.40
2019-04-28T03:36:54.084Z,8.40
2019-04-28T03:39:22.339Z,8.40
2019-04-28T03:41:50.961Z,8.50
2019-04-28T03:44:20.800Z,8.40
2019-04-28T03:46:52.951Z,8.40
2019-04-28T03:49:34.456Z,8.40
2019-04-28T03:52:04.158Z,8.40
2019-04-28T03:54:32.491Z,8.40
2019-04-28T03:57:01.381Z,8.30
2019-04-28T03:59:31.181Z,8.30
2019-04-28T04:02:03.317Z,8.30
2019-04-28T04:04:32.203Z,8.30
2019-04-28T04:07:01.460Z,8.30
2019-04-28T04:09:41.224Z,8.30
2019-04-28T04:12:30.869Z,8.40
2019-04-28T04:15:21.202Z,8.40
2019-04-28T04:18:07.822Z,8.40
2019-04-28T04:20:36.085Z,8.40
2019-04-28T04:23:04.480Z,8.40
2019-04-28T04:25:32.771Z,8.50
2019-04-28T04:28:03.702Z,8.40
2019-04-28T04:30:31.388Z,8.40
2019-04-28T04:33:01.304Z,8.40
2019-04-28T04:35:31.599Z,8.40
2019-04-28T04:38:00.585Z,8.50
2019-04-28T04:40:31.358Z,8.40
2019-04-28T04:43:01.457Z,8.40
2019-04-28T04:45:30.588Z,8.40
2019-04-28T04:48:00.675Z,8.30
2019-04-28T04:50:31.357Z,8.40
2019-04-28T04:52:59.171Z,8.40
2019-04-28T04:55:27.955Z,8.40
2019-04-28T04:57:56.238Z,8.40
2019-04-28T05:00:33.072Z,8.40
2019-04-28T05:03:07.550Z,8.40
2019-04-28T05:05:40.361Z,8.40
2019-04-28T05:08:10.507Z,8.30
2019-04-28T05:10:40.349Z,8.40
2019-04-28T05:13:10.209Z,8.40
2019-04-28T05:15:40.058Z,8.40
2019-04-28T05:18:10.136Z,8.40
2019-04-28T05:20:40.395Z,8.50
2019-04-28T05:23:19.618Z,8.50
2019-04-28T05:25:49.741Z,8.50
2019-04-28T05:28:19.747Z,8.50
2019-04-28T05:30:50.107Z,8.50
2019-04-28T05:33:36.430Z,8.50
2019-04-28T05:36:05.532Z,8.50
2019-04-28T05:38:33.946Z,8.60
2019-04-28T05:41:02.909Z,8.50
2019-04-28T05:43:31.322Z,8.50
2019-04-28T05:46:00.312Z,8.50
2019-04-28T05:48:40.806Z,8.50
2019-04-28T05:51:11.153Z,8.60
2019-04-28T05:53:44.398Z,8.70
2019-04-28T05:56:30.231Z,8.80
2019-04-28T05:59:19.336Z,8.70
2019-04-28T06:02:12.169Z,8.80
2019-04-28T06:04:40.753Z,8.90
2019-04-28T06:07:20.263Z,9.00
2019-04-28T06:09:50.525Z,9.10
2019-04-28T06:12:20.131Z,9.20
2019-04-28T06:14:50.244Z,9.20
2019-04-28T06:17:20.533Z,9.10
2019-04-28T06:19:50.392Z,9.10
2019-04-28T06:22:19.250Z,9.20
2019-04-28T06:24:47.676Z,9.40
2019-04-28T06:27:15.957Z,9.50
2019-04-28T06:29:44.281Z,9.60
2019-04-28T06:32:12.549Z,9.60
2019-04-28T06:34:41.150Z,9.70
2019-04-28T06:37:09.562Z,9.60
2019-04-28T06:39:37.862Z,9.60
2019-04-28T06:42:06.242Z,9.50
2019-04-28T06:44:34.566Z,9.20
2019-04-28T06:47:02.909Z,9.30
2019-04-28T06:49:31.216Z,9.40
2019-04-28T06:51:59.489Z,9.50
2019-04-28T06:54:27.826Z,9.60
2019-04-28T06:56:56.157Z,9.60
2019-04-28T06:59:24.563Z,9.50
2019-04-28T07:01:52.995Z,9.60
2019-04-28T07:04:21.371Z,9.70
2019-04-28T07:06:49.753Z,9.70
2019-04-28T07:09:18.063Z,9.80
2019-04-28T07:11:46.596Z,9.90
2019-04-28T07:14:15.000Z,10.00
2019-04-28T07:16:43.339Z,9.90
2019-04-28T07:19:11.652Z,9.90
2019-04-28T07:21:49.984Z,10.00
2019-04-28T07:24:18.269Z,9.70
2019-04-28T07:26:47.357Z,9.70
2019-04-28T07:29:15.678Z,9.70
2019-04-28T07:31:44.001Z,9.90
2019-04-28T07:34:12.506Z,10.00
2019-04-28T07:36:41.012Z,10.00
2019-04-28T07:39:09.523Z,10.10
2019-04-28T07:41:37.833Z,10.10
2019-04-28T07:44:06.158Z,10.30
2019-04-28T07:46:34.479Z,10.40
2019-04-28T07:49:02.945Z,10.50
2019-04-28T07:51:42.348Z,10.50
2019-04-28T07:54:11.556Z,10.50
2019-04-28T07:56:39.902Z,10.60
2019-04-28T07:59:08.246Z,10.40
2019-04-28T08:01:36.811Z,10.30
2019-04-28T08:04:05.570Z,10.50
2019-04-28T08:06:34.040Z,10.60
2019-04-28T08:09:02.767Z,10.70
2019-04-28T08:11:31.340Z,10.40
2019-04-28T08:13:59.662Z,10.30
2019-04-28T08:16:28.157Z,10.10
2019-04-28T08:18:56.571Z,10.00
2019-04-28T08:21:25.225Z,10.30
2019-04-28T08:23:53.927Z,10.30
2019-04-28T08:26:22.223Z,10.30
2019-04-28T08:28:50.773Z,10.50
2019-04-28T08:31:20.905Z,10.70
2019-04-28T08:34:02.729Z,10.90
2019-04-28T08:36:30.762Z,11.20
2019-04-28T08:38:59.103Z,11.10
2019-04-28T08:41:28.117Z,11.30
2019-04-28T08:43:56.557Z,11.50
2019-04-28T08:46:25.056Z,11.70
2019-04-28T08:48:53.965Z,11.80
2019-04-28T08:51:22.434Z,11.70
2019-04-28T08:53:51.088Z,11.50
2019-04-28T08:56:19.528Z,11.30
2019-04-28T08:58:47.861Z,11.60
2019-04-28T09:01:16.233Z,11.40
2019-04-28T09:03:44.666Z,11.70
2019-04-28T09:06:14.230Z,12.10
2019-04-28T09:08:42.631Z,12.20
2019-04-28T09:11:13.523Z,12.50
2019-04-28T09:13:43.860Z,12.90
2019-04-28T09:16:12.810Z,13.20
2019-04-28T09:18:41.354Z,13.20
2019-04-28T09:21:09.758Z,13.20
2019-04-28T09:23:38.154Z,13.30
2019-04-28T09:26:06.555Z,12.90
2019-04-28T09:28:34.995Z,12.90
2019-04-28T09:31:03.680Z,12.80
2019-04-28T09:33:32.209Z,12.50
2019-04-28T09:36:00.653Z,12.50
2019-04-28T09:38:29.991Z,12.40
2019-04-28T09:40:58.510Z,12.60
2019-04-28T09:43:45.891Z,12.70
2019-04-28T09:46:18.944Z,12.70
2019-04-28T09:48:47.344Z,12.50
2019-04-28T09:51:15.712Z,12.40
2019-04-28T09:53:44.935Z,12.00
2019-04-28T09:56:13.505Z,11.70
2019-04-28T09:58:41.930Z,11.50
2019-04-28T10:01:11.250Z,11.40
2019-04-28T10:03:39.678Z,11.30
2019-04-28T10:06:08.714Z,11.20
2019-04-28T10:08:37.146Z,11.30
2019-04-28T10:11:05.621Z,11.30
2019-04-28T10:13:34.900Z,11.20
2019-04-28T10:16:03.319Z,11.20
2019-04-28T10:18:32.507Z,11.10
2019-04-28T10:21:00.945Z,11.10
2019-04-28T10:23:31.211Z,11.20
2019-04-28T10:25:59.563Z,11.40
2019-04-28T10:28:28.233Z,11.40
2019-04-28T10:30:57.112Z,11.50
2019-04-28T10:33:25.502Z,11.50
2019-04-28T10:35:54.250Z,11.70
2019-04-28T10:38:22.683Z,11.60
2019-04-28T10:40:56.892Z,11.60
2019-04-28T10:43:25.238Z,11.60
2019-04-28T10:45:53.739Z,11.60
2019-04-28T10:48:22.200Z,11.70
2019-04-28T10:50:50.846Z,11.70
2019-04-28T10:53:19.328Z,11.70
2019-04-28T10:55:49.199Z,11.70
2019-04-28T10:58:17.929Z,11.70
2019-04-28T11:00:46.352Z,11.80
2019-04-28T11:03:14.661Z,11.80
2019-04-28T11:05:44.277Z,11.80
2019-04-28T11:08:47.231Z,11.80
2019-04-28T11:11:20.179Z,11.70
2019-04-28T11:13:48.619Z,11.60
2019-04-28T11:16:17.522Z,11.50
2019-04-28T11:18:46.062Z,11.40
2019-04-28T11:21:14.454Z,11.50
2019-04-28T11:23:42.875Z,11.60
2019-04-28T11:26:12.370Z,11.80
2019-04-28T11:28:40.755Z,11.70
2019-04-28T11:31:09.325Z,11.70
2019-04-28T11:33:56.749Z,11.60
2019-04-28T11:36:25.264Z,11.70
2019-04-28T11:38:53.675Z,11.80
2019-04-28T11:41:22.174Z,11.70
2019-04-28T11:43:50.671Z,11.70
2019-04-28T11:46:20.804Z,11.70
2019-04-28T11:48:50.573Z,11.70
2019-04-28T11:51:19.071Z,11.70
2019-04-28T11:53:47.668Z,11.90
2019-04-28T11:56:16.123Z,12.00
2019-04-28T11:58:44.571Z,12.00
2019-04-28T12:01:15.128Z,12.00
2019-04-28T12:03:43.655Z,12.00
2019-04-28T12:06:12.608Z,12.00
2019-04-28T12:08:42.831Z,12.00
2019-04-28T12:11:22.004Z,12.10
2019-04-28T12:14:03.489Z,12.20
2019-04-28T12:16:51.074Z,12.30
2019-04-28T12:19:29.031Z,12.30
2019-04-28T12:21:57.435Z,12.50
2019-04-28T12:24:25.830Z,12.50
2019-04-28T12:26:54.270Z,12.70
2019-04-28T12:29:22.653Z,12.80
2019-04-28T12:31:52.523Z,12.90
2019-04-28T12:34:20.959Z,13.00
2019-04-28T12:36:49.369Z,13.00
2019-04-28T12:39:17.744Z,12.90
2019-04-28T12:41:46.138Z,12.80
2019-04-28T12:44:14.483Z,12.60
2019-04-28T12:46:43.089Z,12.50
2019-04-28T12:49:39.584Z,12.40
2019-04-28T12:52:09.543Z,12.40
2019-04-28T12:54:39.184Z,12.50
2019-04-28T12:57:07.650Z,12.70
2019-04-28T12:59:47.246Z,12.90
2019-04-28T13:02:31.674Z,12.80
2019-04-28T13:05:02.255Z,12.70
2019-04-28T13:07:30.579Z,12.80
2019-04-28T13:09:58.932Z,12.70
2019-04-28T13:12:27.421Z,12.60
2019-04-28T13:14:55.965Z,12.70
2019-04-28T13:17:24.357Z,12.60
2019-04-28T13:19:52.765Z,12.60
2019-04-28T13:22:21.189Z,12.50
2019-04-28T13:24:49.646Z,12.40
2019-04-28T13:27:18.115Z,12.20
2019-04-28T13:29:46.509Z,11.90
2019-04-28T13:32:15.048Z,11.80
2019-04-28T13:34:43.411Z,11.80
2019-04-28T13:37:11.805Z,11.70
2019-04-28T13:39:56.599Z,11.40
2019-04-28T13:42:25.054Z,11.20
2019-04-28T13:45:05.950Z,11.10
2019-04-28T13:47:34.898Z,11.10
2019-04-28T13:50:25.151Z,11.00
2019-04-28T13:52:55.092Z,11.20
2019-04-28T13:55:41.281Z,11.30
2019-04-28T13:58:09.813Z,11.40
2019-04-28T14:01:02.970Z,11.60
2019-04-28T14:03:53.206Z,11.90
2019-04-28T14:06:28.581Z,11.90
2019-04-28T14:08:52.855Z,12.10
2019-04-28T14:11:21.268Z,12.30
2019-04-28T14:13:49.705Z,12.50
2019-04-28T14:16:18.131Z,12.40
2019-04-28T14:18:46.589Z,12.50
2019-04-28T14:21:15.271Z,12.70
2019-04-28T14:23:43.680Z,12.80
2019-04-28T14:26:13.253Z,12.80
2019-04-28T14:28:42.109Z,12.80
2019-04-28T14:31:11.747Z,12.80
2019-04-28T14:33:40.520Z,12.90
2019-04-28T14:36:09.058Z,12.90
2019-04-28T14:38:42.750Z,12.90
2019-04-28T14:41:10.243Z,12.90
2019-04-28T14:43:39.442Z,12.70
2019-04-28T14:46:08.709Z,12.50
2019-04-28T14:48:39.192Z,12.50
2019-04-28T14:51:07.651Z,12.60
2019-04-28T14:53:36.069Z,12.60
2019-04-28T14:56:07.240Z,12.60
2019-04-28T14:58:34.754Z,12.70
2019-04-28T15:01:11.210Z,12.70
2019-04-28T15:03:42.549Z,12.60
2019-04-28T15:06:17.868Z,12.70
2019-04-28T15:09:00.482Z,12.80
2019-04-28T15:11:44.940Z,13.00
2019-04-28T15:14:14.306Z,13.10
2019-04-28T15:16:45.099Z,13.10
2019-04-28T15:19:13.568Z,13.10
2019-04-28T15:21:42.077Z,13.00
2019-04-28T15:24:10.474Z,13.00
2019-04-28T15:26:38.942Z,12.90
2019-04-28T15:29:07.346Z,12.80
2019-04-28T15:31:38.029Z,12.60
2019-04-28T15:34:07.843Z,12.40
2019-04-28T15:36:36.308Z,12.40
2019-04-28T15:39:07.217Z,12.50
2019-04-28T15:41:37.117Z,12.40
2019-04-28T15:44:05.651Z,12.40
2019-04-28T15:46:34.506Z,12.40
2019-04-28T15:49:05.266Z,12.40
2019-04-28T15:51:33.774Z,12.40
2019-04-28T15:54:02.798Z,12.40
2019-04-28T15:56:43.777Z,12.40
2019-04-28T15:59:13.302Z,12.30
2019-04-28T16:01:42.129Z,12.20
2019-04-28T16:04:10.740Z,12.20
2019-04-28T16:06:39.358Z,12.20
2019-04-28T16:09:11.497Z,12.10
2019-04-28T16:11:42.128Z,12.00
2019-04-28T16:14:10.554Z,11.90
2019-04-28T16:16:41.532Z,11.80
2019-04-28T16:19:10.047Z,11.60
2019-04-28T16:21:38.635Z,11.50
2019-04-28T16:24:07.206Z,11.50
2019-04-28T16:26:35.713Z,11.50
2019-04-28T16:29:05.349Z,11.50
2019-04-28T16:31:33.874Z,11.50
2019-04-28T16:34:02.321Z,11.40
2019-04-28T16:36:30.695Z,11.50
2019-04-28T16:39:00.354Z,11.50
2019-04-28T16:41:29.307Z,11.50
2019-04-28T16:43:58.567Z,11.60
2019-04-28T16:46:26.908Z,11.60
2019-04-28T16:48:55.453Z,11.60
2019-04-28T16:51:23.961Z,11.50
2019-04-28T16:53:53.246Z,11.40
2019-04-28T16:56:49.649Z,11.30
2019-04-28T16:59:37.010Z,11.10
2019-04-28T17:02:13.293Z,11.00
2019-04-28T17:04:41.812Z,11.00
2019-04-28T17:07:11.217Z,10.90
2019-04-28T17:09:39.784Z,10.90
2019-04-28T17:12:08.428Z,10.80
2019-04-28T17:14:37.535Z,10.80
2019-04-28T17:17:06.060Z,10.60
2019-04-28T17:19:34.715Z,10.50
2019-04-28T17:22:03.221Z,10.30
2019-04-28T17:24:31.765Z,10.20
2019-04-28T17:27:00.329Z,10.10
2019-04-28T17:29:28.996Z,10.00
2019-04-28T17:31:57.500Z,10.00
2019-04-28T17:34:28.661Z,9.90
2019-04-28T17:36:56.999Z,9.90
2019-04-28T17:39:25.658Z,9.90
2019-04-28T17:41:55.101Z,9.80
2019-04-28T17:44:23.881Z,9.70
2019-04-28T17:46:52.919Z,9.60
2019-04-28T17:49:28.487Z,9.50
2019-04-28T17:51:57.107Z,9.50
2019-04-28T17:54:25.766Z,9.50
2019-04-28T17:56:54.316Z,9.40
2019-04-28T17:59:22.741Z,9.30
2019-04-28T18:02:12.050Z,9.20
2019-04-28T18:05:01.728Z,9.20
2019-04-28T18:07:34.690Z,9.10
2019-04-28T18:10:04.065Z,9.10
2019-04-28T18:12:32.512Z,9.00
2019-04-28T18:15:10.446Z,9.00
2019-04-28T18:18:00.965Z,8.90
2019-04-28T18:20:29.878Z,8.90
2019-04-28T18:22:58.650Z,8.80
2019-04-28T18:25:27.663Z,8.80
2019-04-28T18:27:56.166Z,8.80
2019-04-28T18:30:26.389Z,8.70
2019-04-28T18:33:12.990Z,8.80
2019-04-28T18:36:00.484Z,8.70
2019-04-28T18:38:50.256Z,8.60
2019-04-28T18:41:43.685Z,8.50
2019-04-28T18:44:21.946Z,8.40
2019-04-28T18:46:54.252Z,8.40
2019-04-28T18:49:27.450Z,8.20
2019-04-28T18:51:56.810Z,8.20
2019-04-28T18:54:26.207Z,8.20
2019-04-28T18:56:57.466Z,8.10
2019-04-28T18:59:27.937Z,8.00
2019-04-28T19:02:15.222Z,7.90
2019-04-28T19:04:45.267Z,7.80
2019-04-28T19:07:17.882Z,7.70
2019-04-28T19:09:56.825Z,7.60
2019-04-28T19:12:32.751Z,7.60
2019-04-28T19:15:26.264Z,7.50
2019-04-28T19:18:03.450Z,7.50
2019-04-28T19:20:32.097Z,7.40
2019-04-28T19:23:01.850Z,7.40
2019-04-28T19:25:31.126Z,7.30
2019-04-28T19:27:59.925Z,7.20
2019-04-28T19:30:28.492Z,7.20
2019-04-28T19:32:58.016Z,7.10
2019-04-28T19:35:30.293Z,7.00
2019-04-28T19:37:58.797Z,7.00
2019-04-28T19:40:32.238Z,6.90
2019-04-28T19:43:01.332Z,6.90
2019-04-28T19:45:31.890Z,6.90
2019-04-28T19:48:02.597Z,6.90
2019-04-28T19:50:32.599Z,6.90
2019-04-28T19:53:02.948Z,6.90
2019-04-28T19:55:36.533Z,6.80
2019-04-28T19:58:39.934Z,6.70
2019-04-28T20:01:14.347Z,6.70
2019-04-28T20:03:44.139Z,6.60
2019-04-28T20:06:12.791Z,6.60
2019-04-28T20:08:42.397Z,6.50
2019-04-28T20:11:13.787Z,6.40
2019-04-28T20:13:44.079Z,6.30
2019-04-28T20:16:12.750Z,6.30
2019-04-28T20:18:43.405Z,6.30
2019-04-28T20:21:13.834Z,6.30
2019-04-28T20:23:42.607Z,6.40
2019-04-28T20:26:11.810Z,6.30
2019-04-28T20:28:40.420Z,6.40
2019-04-28T20:31:08.938Z,6.30
2019-04-28T20:33:37.887Z,6.20
2019-04-28T20:36:12.821Z,6.10
2019-04-28T20:38:41.337Z,6.10
2019-04-28T20:41:19.031Z,5.90
2019-04-28T20:43:47.365Z,5.90
2019-04-28T20:46:15.990Z,5.80
2019-04-28T20:48:44.577Z,5.80
2019-04-28T20:51:13.267Z,5.80
2019-04-28T20:53:41.695Z,5.70
2019-04-28T20:56:10.122Z,5.70
2019-04-28T20:58:38.477Z,5.60
2019-04-28T21:01:06.841Z,5.60
2019-04-28T21:03:35.231Z,5.60
2019-04-28T21:06:03.700Z,5.50
2019-04-28T21:08:32.177Z,5.40
2019-04-28T21:11:00.892Z,5.40
2019-04-28T21:13:29.289Z,5.40
2019-04-28T21:15:57.814Z,5.40
2019-04-28T21:18:26.335Z,5.30
2019-04-28T21:20:54.714Z,5.30
2019-04-28T21:23:23.103Z,5.20
2019-04-28T21:25:51.419Z,5.20
2019-04-28T21:28:21.033Z,5.10
2019-04-28T21:30:49.435Z,5.10
2019-04-28T21:33:20.078Z,5.20
2019-04-28T21:35:49.422Z,5.10
2019-04-28T21:38:17.778Z,5.10
2019-04-28T21:40:46.231Z,5.00
2019-04-28T21:43:33.583Z,5.00
2019-04-28T21:46:21.007Z,4.90
2019-04-28T21:49:03.293Z,4.90
2019-04-28T21:51:31.689Z,4.90
2019-04-28T21:54:00.076Z,4.80
2019-04-28T21:56:28.454Z,4.80
2019-04-28T21:58:56.864Z,4.70
2019-04-28T22:01:25.280Z,4.70
2019-04-28T22:03:53.691Z,4.70
2019-04-28T22:06:22.027Z,4.60
2019-04-28T22:08:50.631Z,4.60
2019-04-28T22:11:19.045Z,4.50
2019-04-28T22:13:47.572Z,4.50
2019-04-28T22:16:16.689Z,4.50
2019-04-28T22:18:48.089Z,4.60
2019-04-28T22:21:16.508Z,4.60
2019-04-28T22:24:02.427Z,4.50
2019-04-28T22:26:47.474Z,4.40
2019-04-28T22:29:15.780Z,4.40
2019-04-28T22:31:44.421Z,4.30
2019-04-28T22:34:14.551Z,4.40
2019-04-28T22:36:43.560Z,4.40
2019-04-28T22:39:12.525Z,4.40
2019-04-28T22:41:40.878Z,4.40
2019-04-28T22:44:09.696Z,4.40
2019-04-28T22:46:40.821Z,4.30
2019-04-28T22:49:09.103Z,4.30
2019-04-28T22:51:37.431Z,4.40
2019-04-28T22:54:14.258Z,4.40
2019-04-28T22:56:44.438Z,4.40
2019-04-28T22:59:19.525Z,4.40
2019-04-28T23:01:52.333Z,4.40
2019-04-28T23:04:35.665Z,4.30
2019-04-28T23:07:04.050Z,4.30
2019-04-28T23:09:32.330Z,4.20
2019-04-28T23:12:00.718Z,4.20
2019-04-28T23:14:29.000Z,4.20
2019-04-28T23:16:57.321Z,4.20
2019-04-28T23:19:27.762Z,4.20
2019-04-28T23:22:15.151Z,4.10
2019-04-28T23:24:43.426Z,4.00
2019-04-28T23:27:11.982Z,4.00
2019-04-28T23:29:40.364Z,3.90
2019-04-28T23:32:08.690Z,3.80
2019-04-28T23:34:37.066Z,3.80
2019-04-28T23:37:05.333Z,3.70
2019-04-28T23:39:33.663Z,3.60
2019-04-28T23:42:06.874Z,3.60
2019-04-28T23:44:35.913Z,3.70
2019-04-28T23:47:04.668Z,3.60
2019-04-28T23:49:32.958Z,3.60
2019-04-28T23:52:35.991Z,3.50
2019-04-28T23:55:05.723Z,3.50
2019-04-28T23:57:34.184Z,3.50
